Time;durP1;ratioP1;P1;durP2;ratioP2;P2;SDS_P1;SDS_P2;PMS_P1;PMS_P2;Temp;Humidity;BMP_temperature;BMP_pressure;BME280_temperature;BME280_humidity;BME280_pressure;Samples;Min_cycle;Max_cycle;Signal;HPM_P1;HPM_P2
2022/07/17 00:03:41;;;;;;;;;5.00;3.75;;;;;25.38;31.34;101683.16;5031384;28;45789;-79
2022/07/17 00:06:09;;;;;;;;;4.00;4.00;;;;;25.39;31.17;101689.34;5033627;28;45487;-79
2022/07/17 00:08:34;;;;;;;;;3.25;3.25;;;;;25.36;31.40;101698.63;5033126;28;45822;-79
2022/07/17 00:11:01;;;;;;;;;4.00;3.00;;;;;25.33;31.53;101692.75;5033021;28;45728;-79
2022/07/17 00:13:27;;;;;;;;;4.25;4.00;;;;;25.28;31.58;101687.09;5032870;28;45569;-77
2022/07/17 00:15:52;;;;;;;;;4.00;3.25;;;;;25.22;31.75;101679.75;5033180;28;45667;-80
2022/07/17 00:18:18;;;;;;;;;3.00;3.00;;;;;25.22;31.38;101685.97;5033250;28;45936;-80
2022/07/17 00:20:43;;;;;;;;;5.00;3.50;;;;;25.18;31.52;101676.59;5032846;28;46552;-79
2022/07/17 00:23:09;;;;;;;;;5.00;3.25;;;;;25.15;31.75;101681.50;5033367;28;45584;-79
2022/07/17 00:25:35;;;;;;;;;3.00;3.00;;;;;25.12;31.90;101684.50;5033353;28;45494;-79
2022/07/17 00:28:00;;;;;;;;;4.00;4.00;;;;;25.12;31.97;101692.56;5014947;28;47458;-79
2022/07/17 00:33:47;;;;;;;;;3.75;3.00;;;;;24.98;31.88;101686.97;5032813;28;45804;-79
2022/07/17 00:36:13;;;;;;;;;4.00;4.00;;;;;25.03;31.85;101689.13;5033276;28;45739;-78
2022/07/17 00:38:38;;;;;;;;;3.00;3.00;;;;;24.98;32.10;101686.97;5033120;28;46554;-79
2022/07/17 00:41:04;;;;;;;;;3.50;3.00;;;;;24.98;32.09;101684.28;5032402;28;46092;-78
2022/07/17 00:43:29;;;;;;;;;4.75;3.75;;;;;24.96;32.23;101669.38;5033013;28;45772;-79
2022/07/17 00:49:16;;;;;;;;;4.00;4.00;;;;;24.91;32.04;101680.63;5032395;28;45638;-79
2022/07/17 00:51:42;;;;;;;;;3.00;3.00;;;;;24.90;32.00;101681.63;5032808;28;46243;-79
2022/07/17 00:54:08;;;;;;;;;3.00;3.00;;;;;24.89;32.41;101681.81;5032575;28;45474;-79
2022/07/17 00:56:35;;;;;;;;;4.00;3.00;;;;;24.85;32.00;101683.97;5032742;28;45969;-79
2022/07/17 00:59:01;;;;;;;;;5.00;4.00;;;;;24.83;32.42;101693.22;5032357;28;46888;-80
2022/07/17 01:01:27;;;;;;;;;3.00;2.25;;;;;24.77;31.97;101683.19;5032342;28;46073;-78
2022/07/17 01:03:52;;;;;;;;;3.00;3.00;;;;;24.68;32.44;101682.38;5032349;28;45643;-79
2022/07/17 01:06:18;;;;;;;;;4.00;3.50;;;;;24.70;32.23;101691.09;5032730;28;45801;-79
2022/07/17 01:08:44;;;;;;;;;2.50;2.50;;;;;24.68;32.15;101691.25;5032078;28;46472;-79
2022/07/17 01:11:10;;;;;;;;;2.75;2.50;;;;;24.71;32.78;101695.44;5032355;28;46293;-79
2022/07/17 01:13:35;;;;;;;;;3.00;3.00;;;;;24.65;32.12;101688.94;5034777;28;45600;-79
2022/07/17 01:19:22;;;;;;;;;4.75;3.00;;;;;24.62;32.60;101694.63;5035390;28;45547;-79
2022/07/17 01:21:49;;;;;;;;;4.25;4.25;;;;;24.59;32.80;101689.63;5035744;28;45633;-79
2022/07/17 01:24:16;;;;;;;;;4.50;4.00;;;;;24.53;32.55;101687.66;5036218;28;45693;-79
2022/07/17 01:26:46;;;;;;;;;4.00;4.00;;;;;24.49;32.69;101686.34;5036047;28;45666;-79
2022/07/17 01:29:13;;;;;;;;;4.00;3.00;;;;;24.47;32.81;101688.34;5035783;28;45558;-79
2022/07/17 01:35:01;;;;;;;;;3.75;3.75;;;;;24.38;32.55;101689.38;5035360;28;45713;-79
2022/07/17 01:37:28;;;;;;;;;4.25;4.00;;;;;24.33;33.50;101688.22;5035586;28;45498;-78
2022/07/17 01:39:53;;;;;;;;;3.50;3.00;;;;;24.30;33.09;101686.72;5035282;28;46590;-78
2022/07/17 01:42:20;;;;;;;;;4.00;3.00;;;;;24.23;33.10;101673.19;5017507;28;47197;-79
2022/07/17 01:44:45;;;;;;;;;4.75;3.75;;;;;24.17;33.06;101671.19;5035520;28;45731;-79
2022/07/17 01:47:14;;;;;;;;;3.00;3.00;;;;;24.16;33.71;101669.50;5035665;28;45875;-78
2022/07/17 01:49:50;;;;;;;;;3.75;3.75;;;;;24.06;33.08;101671.53;5035373;28;45726;-79
2022/07/17 01:52:16;;;;;;;;;3.00;3.00;;;;;24.04;33.92;101675.38;5035230;28;45957;-78
2022/07/17 01:54:42;;;;;;;;;5.25;4.75;;;;;24.02;33.52;101666.69;5035328;28;45526;-78
2022/07/17 01:57:09;;;;;;;;;3.25;3.00;;;;;23.97;33.99;101664.50;5035528;28;45699;-78
2022/07/17 01:59:35;;;;;;;;;3.75;3.00;;;;;23.99;33.58;101677.72;5035000;28;45606;-78
2022/07/17 02:05:22;;;;;;;;;3.00;3.00;;;;;23.94;33.59;101672.88;5032589;28;45845;-79
2022/07/17 02:07:47;;;;;;;;;1.00;1.00;;;;;23.91;33.64;101665.19;5035130;28;45522;-79
2022/07/17 02:10:16;;;;;;;;;3.25;3.00;;;;;23.88;33.90;101668.19;5035020;28;46337;-78
2022/07/17 02:12:44;;;;;;;;;4.00;3.00;;;;;23.86;33.80;101669.41;5035199;28;45660;-78
2022/07/17 02:15:11;;;;;;;;;4.00;4.00;;;;;23.81;33.93;101662.69;5034779;28;45527;-78
2022/07/17 02:17:36;;;;;;;;;3.00;3.00;;;;;23.78;33.95;101662.19;5035100;28;45599;-79
2022/07/17 02:20:03;;;;;;;;;2.50;2.50;;;;;23.79;34.15;101667.38;5034416;28;45520;-79
2022/07/17 02:22:28;;;;;;;;;5.50;4.50;;;;;23.73;34.07;101657.34;5034709;28;45591;-79
2022/07/17 02:24:54;;;;;;;;;6.00;6.00;;;;;23.74;33.59;101661.72;5033830;28;45672;-78
2022/07/17 02:27:19;;;;;;;;;5.50;5.00;;;;;23.71;34.03;101655.84;5035005;28;45944;-79
2022/07/17 02:29:44;;;;;;;;;6.50;6.50;;;;;23.71;34.29;101656.69;5034464;28;46623;-78
2022/07/17 02:35:31;;;;;;;;;6.50;6.50;;;;;23.66;34.07;101661.69;5034459;28;45748;-78
2022/07/17 02:37:57;;;;;;;;;6.00;5.50;;;;;23.61;34.16;101656.03;5034779;28;45979;-78
2022/07/17 02:40:22;;;;;;;;;6.00;6.00;;;;;23.60;33.92;101658.84;5033882;28;45701;-78
2022/07/17 02:42:48;;;;;;;;;5.00;4.00;;;;;23.62;34.46;101659.53;5034447;28;46075;-79
2022/07/17 02:45:13;;;;;;;;;8.00;7.00;;;;;23.60;33.88;101659.69;5034056;28;45641;-78
2022/07/17 02:51:00;;;;;;;;;2.25;2.25;;;;;23.56;34.51;101660.19;5033995;28;45527;-77
2022/07/17 02:53:26;;;;;;;;;5.25;4.00;;;;;23.52;34.04;101656.19;5034256;28;45800;-80
2022/07/17 02:55:52;;;;;;;;;5.50;3.75;;;;;23.53;34.50;101655.19;5034337;28;45750;-80
2022/07/17 02:58:18;;;;;;;;;3.25;2.00;;;;;23.44;34.20;101641.78;5034451;28;45646;-80
2022/07/17 03:00:44;;;;;;;;;2.00;2.00;;;;;23.49;34.26;101652.00;5033649;28;46503;-78
2022/07/17 03:03:09;;;;;;;;;4.00;3.00;;;;;23.43;34.23;101639.25;5033868;28;45539;-79
2022/07/17 03:05:34;;;;;;;;;4.00;3.00;;;;;23.43;34.09;101640.09;5033786;28;45786;-79
2022/07/17 03:08:00;;;;;;;;;4.00;3.00;;;;;23.44;34.20;101654.31;5015992;28;45587;-79
2022/07/17 03:10:25;;;;;;;;;3.75;3.75;;;;;23.39;34.81;101648.63;5033853;28;45635;-79
2022/07/17 03:12:51;;;;;;;;;2.75;2.00;;;;;23.40;34.65;101656.50;5034054;28;45697;-79
2022/07/17 03:15:17;;;;;;;;;2.00;2.00;;;;;23.36;34.16;101649.81;5033942;28;45593;-79
2022/07/17 03:21:04;;;;;;;;;3.25;3.00;;;;;23.33;34.40;101651.97;5033518;28;45488;-79
2022/07/17 03:23:30;;;;;;;;;3.25;3.00;;;;;23.29;34.77;101650.63;5033942;28;45606;-79
2022/07/17 03:25:56;;;;;;;;;3.00;3.00;;;;;23.29;34.97;101653.31;5033820;28;45636;-79
2022/07/17 03:28:22;;;;;;;;;2.75;2.00;;;;;23.28;34.76;101656.97;5033921;28;45645;-78
2022/07/17 03:30:47;;;;;;;;;2.00;2.00;;;;;23.28;34.33;101655.16;5033892;28;45848;-79
2022/07/17 03:36:34;;;;;;;;;4.25;3.50;;;;;23.23;35.04;101659.31;5033512;28;45789;-79
2022/07/17 03:39:00;;;;;;;;;4.00;3.00;;;;;23.23;34.75;101670.00;5034060;28;45514;-79
2022/07/17 03:41:25;;;;;;;;;3.00;2.00;;;;;23.19;34.82;101664.16;5033895;28;45833;-80
2022/07/17 03:43:51;;;;;;;;;3.00;3.00;;;;;23.17;34.61;101671.50;5034181;28;45802;-78
2022/07/17 03:46:17;;;;;;;;;2.75;2.75;;;;;23.13;35.28;101666.66;5033895;28;45741;-78
2022/07/17 03:48:42;;;;;;;;;3.25;2.00;;;;;23.16;35.03;101682.41;5034581;28;45691;-79
2022/07/17 03:51:08;;;;;;;;;4.00;3.00;;;;;23.04;34.73;101660.47;5016121;28;47426;-80
2022/07/17 03:53:33;;;;;;;;;3.00;3.00;;;;;23.06;34.58;101654.94;5034324;28;46099;-79
2022/07/17 03:55:58;;;;;;;;;2.75;2.50;;;;;23.04;35.33;101667.66;5034352;28;45680;-78
2022/07/17 03:58:24;;;;;;;;;3.00;3.00;;;;;23.04;35.32;101670.34;5035502;28;45537;-78
2022/07/17 04:00:49;;;;;;;;;2.50;2.50;;;;;23.07;35.64;101668.16;5033711;28;45731;-79
2022/07/17 04:06:36;;;;;;;;;2.25;2.25;;;;;23.07;35.04;101667.31;5031499;28;45654;-79
2022/07/17 04:09:04;;;;;;;;;3.50;2.75;;;;;23.06;35.80;101670.97;5034487;28;45637;-79
2022/07/17 04:11:29;;;;;;;;;4.00;4.00;;;;;23.01;35.68;101666.97;5034338;28;46661;-79
2022/07/17 04:13:54;;;;;;;;;3.25;2.75;;;;;22.93;35.85;101652.75;5033759;28;45674;-78
2022/07/17 04:16:20;;;;;;;;;3.25;3.00;;;;;22.93;35.57;101660.78;5034058;28;45783;-80
2022/07/17 04:22:07;;;;;;;;;3.00;3.00;;;;;22.89;35.92;101681.63;5039099;28;45631;-79
2022/07/17 04:24:32;;;;;;;;;3.75;3.50;;;;;22.77;35.81;101672.28;5039887;28;46050;-79
2022/07/17 04:26:57;;;;;;;;;2.00;2.00;;;;;22.82;35.67;101691.31;5040863;28;45750;-78
2022/07/17 04:29:23;;;;;;;;;4.00;2.75;;;;;22.80;36.13;101705.84;5040526;28;45666;-79
2022/07/17 04:31:48;;;;;;;;;2.00;2.00;;;;;22.77;36.21;101703.50;5040570;28;46355;-79
2022/07/17 04:37:35;;;;;;;;;3.00;2.50;;;;;22.73;36.14;101710.97;5039879;28;45653;-78
2022/07/17 04:40:01;;;;;;;;;3.00;3.00;;;;;22.71;36.02;101715.66;5039928;28;45757;-80
2022/07/17 04:42:26;;;;;;;;;2.50;2.25;;;;;22.66;36.41;101709.94;5039995;28;46795;-78
2022/07/17 04:44:51;;;;;;;;;3.25;2.50;;;;;22.59;36.29;101698.22;5038653;28;45619;-80
2022/07/17 04:47:17;;;;;;;;;3.00;3.00;;;;;22.60;36.44;101713.25;5019909;28;45708;-79
2022/07/17 04:49:44;;;;;;;;;4.00;3.00;;;;;22.58;36.60;101717.91;5041385;28;45687;-78
2022/07/17 04:52:23;;;;;;;;;2.00;2.00;;;;;22.56;36.73;101717.25;5038732;28;47473;-78
2022/07/17 04:54:48;;;;;;;;;2.25;2.25;;;;;22.58;36.81;101733.94;5023453;28;48068;-79
2022/07/17 04:57:14;;;;;;;;;3.00;2.75;;;;;22.45;36.74;101714.84;5041654;28;45573;-80
2022/07/17 04:59:39;;;;;;;;;2.00;2.00;;;;;22.43;36.51;101712.31;5042974;28;45561;-79
2022/07/17 05:02:05;;;;;;;;;2.75;2.75;;;;;22.41;36.66;101714.31;5043387;28;45518;-78
2022/07/17 05:07:53;;;;;;;;;5.50;5.00;;;;;22.43;37.18;101724.84;5041196;28;45709;-80
2022/07/17 05:10:21;;;;;;;;;6.75;5.75;;;;;22.34;36.84;101720.47;5043139;28;45758;-79
2022/07/17 05:12:46;;;;;;;;;9.00;8.00;;;;;22.37;36.83;101734.31;5043564;28;45537;-80
2022/07/17 05:15:12;;;;;;;;;8.00;7.00;;;;;22.33;36.92;101735.66;5043805;28;46042;-79
2022/07/17 05:17:39;;;;;;;;;7.50;7.00;;;;;22.32;36.90;101738.47;5041587;28;46075;-80
2022/07/17 05:20:05;;;;;;;;;9.00;8.00;;;;;22.22;37.73;101730.56;5042745;28;45705;-79
2022/07/17 05:22:30;;;;;;;;;8.50;8.25;;;;;22.25;37.88;101740.91;5024776;28;47496;-78
2022/07/17 05:24:56;;;;;;;;;7.25;6.25;;;;;22.25;37.60;101730.22;5043145;28;46257;-80
2022/07/17 05:27:21;;;;;;;;;7.25;6.25;;;;;22.25;37.90;101738.25;5048008;28;45549;-78
2022/07/17 05:29:47;;;;;;;;;7.25;6.00;;;;;22.21;37.83;101725.38;5049948;28;45501;-77
2022/07/17 05:32:12;;;;;;;;;7.00;5.75;;;;;22.28;38.11;101737.09;5045106;28;45562;-79
2022/07/17 05:37:59;;;;;;;;;4.75;4.75;;;;;22.22;37.72;101735.91;5042359;28;45621;-78
2022/07/17 05:40:25;;;;;;;;;5.00;3.75;;;;;22.23;37.94;101736.75;5024706;28;45612;-78
2022/07/17 05:42:51;;;;;;;;;2.25;2.25;;;;;22.22;38.09;101749.25;5042600;28;46621;-79
2022/07/17 05:45:21;;;;;;;;;3.00;3.00;;;;;22.13;37.44;101731.50;5041742;28;46004;-79
2022/07/17 05:47:50;;;;;;;;;3.00;3.00;;;;;22.12;37.82;101743.19;5039373;28;45623;-79
2022/07/17 05:53:37;;;;;;;;;3.00;3.00;;;;;22.17;38.16;101743.56;5035192;28;45676;-79
2022/07/17 05:56:02;;;;;;;;;4.25;4.00;;;;;22.12;38.06;101738.69;5035430;28;45536;-79
2022/07/17 05:58:28;;;;;;;;;4.25;3.50;;;;;22.15;38.09;101740.19;5016527;28;45679;-79
2022/07/17 06:00:53;;;;;;;;;3.00;3.00;;;;;22.15;38.18;101748.19;5034634;28;45709;-78
2022/07/17 06:03:19;;;;;;;;;3.00;3.00;;;;;22.14;37.79;101742.00;5035596;28;46356;-78
2022/07/17 06:05:44;;;;;;;;;3.00;3.00;;;;;22.11;38.07;101747.69;5035054;28;45657;-79
2022/07/17 06:08:10;;;;;;;;;3.00;3.00;;;;;22.11;38.23;101747.69;5034734;28;45583;-78
2022/07/17 06:10:37;;;;;;;;;5.00;3.00;;;;;22.07;38.09;101738.31;5034925;28;45521;-78
2022/07/17 06:13:03;;;;;;;;;2.75;2.75;;;;;22.14;38.09;101747.34;5034767;28;45557;-78
2022/07/17 06:15:28;;;;;;;;;2.75;2.00;;;;;22.14;38.24;101749.19;5034993;28;46583;-77
2022/07/17 06:17:54;;;;;;;;;4.00;3.00;;;;;22.15;38.11;101745.53;5035143;28;45506;-80
2022/07/17 06:23:41;;;;;;;;;3.00;2.00;;;;;22.20;37.74;101753.91;5034389;28;46134;-78
2022/07/17 06:26:06;;;;;;;;;4.50;4.00;;;;;22.22;38.32;101746.59;5034716;28;45558;-79
2022/07/17 06:28:31;;;;;;;;;4.00;3.00;;;;;22.18;37.91;101748.75;5034704;28;45778;-79
2022/07/17 06:30:57;;;;;;;;;4.00;3.00;;;;;22.24;37.83;101746.44;5034679;28;45486;-79
2022/07/17 06:33:22;;;;;;;;;3.75;3.00;;;;;22.23;37.99;101747.41;5034525;28;45544;-79
2022/07/17 06:35:48;;;;;;;;;3.75;3.75;;;;;22.28;38.06;101753.13;5034828;28;46139;-80
2022/07/17 06:38:13;;;;;;;;;2.50;2.50;;;;;22.30;37.79;101757.31;5034022;28;45685;-80
2022/07/17 06:40:38;;;;;;;;;3.00;3.00;;;;;22.28;38.18;101748.63;5034244;28;45781;-77
2022/07/17 06:43:06;;;;;;;;;4.75;3.00;;;;;22.34;37.56;101749.84;5034426;28;45684;-81
2022/07/17 06:45:31;;;;;;;;;3.50;3.50;;;;;22.37;37.82;101737.00;5034274;28;45995;-78
2022/07/17 06:47:57;;;;;;;;;3.00;3.00;;;;;22.42;37.71;101745.38;5034287;28;45664;-79
2022/07/17 06:53:44;;;;;;;;;4.00;3.00;;;;;22.53;37.59;101746.94;5033786;28;46100;-78
2022/07/17 06:56:09;;;;;;;;;2.50;2.50;;;;;22.57;37.88;101738.44;5034019;28;45675;-78
2022/07/17 06:58:35;;;;;;;;;3.00;2.00;;;;;22.57;37.47;101730.41;5033814;28;45491;-79
2022/07/17 07:01:00;;;;;;;;;3.25;3.25;;;;;22.66;37.55;101735.81;5034498;28;45785;-80
2022/07/17 07:03:26;;;;;;;;;3.25;3.00;;;;;22.71;37.04;101733.50;5034491;28;45761;-77
2022/07/17 07:09:13;;;;;;;;;3.00;3.00;;;;;22.86;36.72;101739.94;5030609;28;45749;-79
2022/07/17 07:11:39;;;;;;;;;4.50;4.00;;;;;22.88;37.36;101737.94;5033787;28;45598;-79
2022/07/17 07:14:06;;;;;;;;;3.25;3.00;;;;;22.97;37.27;101736.97;5032633;28;45529;-79
2022/07/17 07:16:32;;;;;;;;;4.00;3.50;;;;;23.05;36.75;101745.00;5032757;28;46583;-79
2022/07/17 07:18:57;;;;;;;;;4.25;3.00;;;;;23.10;36.62;101745.38;5032641;28;45948;-79
2022/07/17 07:21:24;;;;;;;;;4.00;3.00;;;;;23.16;36.44;101749.25;5032722;28;45621;-79
2022/07/17 07:23:50;;;;;;;;;4.00;2.50;;;;;23.20;36.35;101746.06;5032795;28;45713;-77
2022/07/17 07:26:15;;;;;;;;;3.75;2.00;;;;;23.31;36.76;101747.59;5014359;28;47202;-77
2022/07/17 07:28:41;;;;;;;;;3.00;2.75;;;;;23.33;36.69;101741.06;5032659;28;45679;-83
2022/07/17 07:31:06;;;;;;;;;3.00;3.00;;;;;23.40;35.87;101735.91;5032236;28;45909;-79
2022/07/17 07:33:32;;;;;;;;;3.75;2.75;;;;;23.53;36.07;101749.69;5032505;28;46614;-79
2022/07/17 07:39:19;;;;;;;;;3.25;3.25;;;;;23.64;36.10;101735.16;5031501;28;45774;-77
2022/07/17 07:41:44;;;;;;;;;3.00;3.00;;;;;23.71;36.16;101722.75;5032823;28;45844;-79
2022/07/17 07:44:10;;;;;;;;;2.25;2.25;;;;;23.81;35.96;101734.97;5032050;28;45608;-83
2022/07/17 07:46:35;;;;;;;;;3.25;3.00;;;;;23.87;35.64;101736.13;5032158;28;46216;-78
2022/07/17 07:49:01;;;;;;;;;4.25;4.25;;;;;23.91;35.68;101729.47;5032038;28;45659;-77
2022/07/17 07:54:49;;;;;;;;;5.00;4.75;;;;;24.06;35.38;101737.63;5033570;28;46046;-77
2022/07/17 07:57:14;;;;;;;;;5.00;4.50;;;;;24.08;35.26;101735.59;5035143;28;46667;-80
2022/07/17 07:59:40;;;;;;;;;3.50;3.50;;;;;24.14;35.16;101733.09;5034304;28;46138;-77
2022/07/17 08:02:05;;;;;;;;;4.00;3.50;;;;;24.20;35.10;101735.13;5038220;28;45650;-78
2022/07/17 08:04:31;;;;;;;;;5.75;5.00;;;;;24.27;35.13;101747.84;5038711;28;45523;-76
2022/07/17 08:06:56;;;;;;;;;4.00;3.25;;;;;24.29;35.51;101741.31;5039087;28;46406;-78
2022/07/17 08:09:22;;;;;;;;;4.25;3.50;;;;;24.36;35.07;101739.59;5036966;28;45489;-77
2022/07/17 08:11:47;;;;;;;;;2.75;2.75;;;;;24.38;35.08;101728.72;5040044;28;45579;-78
2022/07/17 08:14:13;;;;;;;;;4.00;3.00;;;;;24.40;34.97;101732.09;5040082;28;45534;-78
2022/07/17 08:16:38;;;;;;;;;3.00;3.00;;;;;24.42;34.82;101724.69;5039639;28;46266;-78
2022/07/17 08:19:04;;;;;;;;;3.50;3.00;;;;;24.54;34.01;101732.19;5039404;28;45557;-79
2022/07/17 08:24:51;;;;;;;;;2.00;2.00;;;;;24.66;34.02;101730.00;5037657;28;45681;-79
2022/07/17 08:27:16;;;;;;;;;2.75;2.75;;;;;24.74;34.10;101737.16;5035082;28;46243;-79
2022/07/17 08:29:42;;;;;;;;;5.00;3.50;;;;;24.80;33.60;101744.50;5038267;28;45659;-79
2022/07/17 08:32:07;;;;;;;;;2.25;2.00;;;;;24.85;33.85;101736.75;5034324;28;45896;-79
2022/07/17 08:34:33;;;;;;;;;3.00;3.00;;;;;24.89;33.80;101736.25;5033917;28;46682;-79
2022/07/17 08:40:25;;;;;;;;;3.00;3.00;;;;;25.02;33.96;101731.19;5033349;28;45809;-79
2022/07/17 08:42:51;;;;;;;;;3.00;3.00;;;;;25.07;33.65;101734.16;5032627;28;45832;-82
2022/07/17 08:45:16;;;;;;;;;3.00;2.00;;;;;25.08;33.72;101725.13;5037296;28;46501;-79
2022/07/17 08:47:43;;;;;;;;;3.00;2.25;;;;;25.15;32.77;101732.47;5035017;28;46074;-80
2022/07/17 08:50:10;;;;;;;;;3.25;3.00;;;;;25.23;32.74;101735.09;5037696;28;45880;-79
2022/07/17 08:52:38;;;;;;;;;3.00;2.50;;;;;25.25;32.94;101725.03;5038079;28;45644;-83
2022/07/17 08:55:04;;;;;;;;;2.00;2.00;;;;;25.30;32.83;101736.91;5039581;28;45621;-79
2022/07/17 08:57:29;;;;;;;;;4.00;3.00;;;;;25.37;32.76;101728.97;5039933;28;46831;-79
2022/07/17 08:59:55;;;;;;;;;2.25;2.00;;;;;25.42;32.58;101740.00;5039638;28;45629;-79
2022/07/17 09:02:21;;;;;;;;;4.00;4.00;;;;;25.39;32.67;101721.56;5039992;28;45669;-78
2022/07/17 09:04:54;;;;;;;;;3.00;2.50;;;;;25.52;31.93;101742.44;5022410;28;47374;-80
2022/07/17 09:10:44;;;;;;;;;1.00;1.00;;;;;25.60;31.90;101737.88;5038712;28;45704;-88
2022/07/17 09:13:30;;;;;;;;;2.50;2.00;;;;;25.63;31.99;101732.16;5042239;28;45672;-86
2022/07/17 09:16:09;;;;;;;;;2.75;2.75;;;;;25.68;32.19;101732.47;5042326;28;46763;-83
2022/07/17 09:18:53;;;;;;;;;4.00;3.00;;;;;25.75;31.97;101735.25;5041407;28;45611;-81
2022/07/17 09:21:21;;;;;;;;;5.00;3.00;;;;;25.77;31.91;101723.31;5041337;28;45632;-84
2022/07/17 09:24:00;;;;;;;;;3.00;3.00;;;;;25.87;31.75;101729.25;5022994;28;45525;-82
2022/07/17 09:26:27;;;;;;;;;3.50;3.50;;;;;25.91;31.60;101730.56;5042428;28;46483;-86
2022/07/17 09:28:53;;;;;;;;;3.25;3.25;;;;;25.96;31.23;101730.03;5042227;28;45885;-83
2022/07/17 09:31:30;;;;;;;;;3.25;3.25;;;;;26.10;31.56;101731.06;5041290;28;45574;-80
2022/07/17 09:33:57;;;;;;;;;3.75;2.25;;;;;26.18;31.19;101736.38;5044797;28;45597;-83
2022/07/17 09:36:23;;;;;;;;;2.50;2.50;;;;;26.25;31.23;101732.78;5045129;28;45721;-80
2022/07/17 09:38:53;;;;;;;;;5.00;4.00;;;;;26.26;31.10;101729.09;5044801;28;46449;-81
2022/07/17 09:41:20;;;;;;;;;3.00;3.00;;;;;26.31;30.65;101728.53;5045057;28;45667;-87
2022/07/17 09:43:52;;;;;;;;;3.00;3.00;;;;;26.46;30.26;101739.28;5046979;28;45574;-88
2022/07/17 09:46:21;;;;;;;;;4.00;3.00;;;;;26.49;29.85;101736.22;5027655;28;48287;-80
2022/07/17 09:48:50;;;;;;;;;2.75;2.25;;;;;26.52;30.46;101730.47;5043755;28;45469;-84
2022/07/17 09:51:24;;;;;;;;;3.75;3.75;;;;;26.49;29.96;101720.94;5022199;28;45686;-79
2022/07/17 09:53:52;;;;;;;;;2.75;2.75;;;;;26.51;29.57;101724.25;5041426;28;45745;-87
2022/07/17 09:56:20;;;;;;;;;3.00;3.00;;;;;26.52;29.90;101720.56;5042003;28;45647;-80
2022/07/17 09:58:54;;;;;;;;;3.00;2.00;;;;;26.55;29.92;101720.19;5043449;28;45888;-85
2022/07/17 10:01:20;;;;;;;;;2.75;2.00;;;;;26.58;29.92;101719.81;5052973;28;45528;-87
2022/07/17 10:03:48;;;;;;;;;2.00;2.00;;;;;26.67;29.22;101732.13;5052616;28;45392;-80
2022/07/17 10:06:15;;;;;;;;;1.75;1.00;;;;;26.68;27.58;101731.13;5051983;28;45684;-89
2022/07/17 10:08:42;;;;;;;;;2.25;2.25;;;;;26.64;27.88;101732.50;5056915;28;45405;-90
2022/07/17 10:11:09;;;;;;;;;2.75;2.75;;;;;26.63;28.25;101733.53;5057695;28;45198;-93
2022/07/17 10:13:40;;;;;;;;;3.00;3.00;;;;;26.63;27.85;101733.53;5054528;28;45222;-87
2022/07/17 10:16:08;;;;;;;;;3.75;3.00;;;;;26.62;29.44;101729.16;5051138;28;45608;-79
2022/07/17 10:18:44;;;;;;;;;3.00;3.00;;;;;26.69;28.88;101737.31;5050681;28;45351;-82
2022/07/17 10:21:15;;;;;;;;;4.00;3.00;;;;;26.69;27.78;101738.16;5054543;28;45613;-88
2022/07/17 10:27:02;;;;;;;;;3.00;3.00;;;;;26.65;27.98;101730.66;5048334;28;45999;-86
2022/07/17 10:29:32;;;;;;;;;4.00;3.75;;;;;26.69;28.84;101742.72;5047379;28;45466;-86
2022/07/17 10:31:59;;;;;;;;;1.75;1.75;;;;;26.74;28.95;101740.28;5047970;28;45650;-89
2022/07/17 10:34:38;;;;;;;;;4.00;3.25;;;;;26.79;28.20;101747.78;5046169;28;45660;-87
2022/07/17 10:37:18;;;;;;;;;4.00;2.50;;;;;26.84;28.94;101742.69;5050154;28;45550;-85
2022/07/17 10:40:12;;;;;;;;;3.25;3.00;;;;;26.88;28.01;101746.72;5043345;28;45609;-82
2022/07/17 10:42:58;;;;;;;;;3.00;3.00;;;;;26.89;27.02;101756.44;5038576;28;45847;-83
2022/07/17 10:45:37;;;;;;;;;2.25;2.25;;;;;26.87;27.22;101742.31;5039227;28;45581;-85
2022/07/17 10:48:19;;;;;;;;;3.00;3.00;;;;;26.92;27.13;101745.31;5042451;28;46497;-81
2022/07/17 10:50:45;;;;;;;;;2.25;2.00;;;;;26.93;26.49;101745.13;5044738;28;46374;-87
2022/07/17 10:53:31;;;;;;;;;2.00;2.00;;;;;26.93;26.53;101747.00;5044654;28;45677;-84
2022/07/17 10:56:05;;;;;;;;;3.00;2.00;;;;;26.98;26.61;101752.63;5045401;28;45329;-87
2022/07/17 10:58:37;;;;;;;;;2.00;2.00;;;;;26.97;25.68;101740.19;5043051;28;45787;-84
2022/07/17 11:01:05;;;;;;;;;3.75;3.00;;;;;27.02;25.03;101749.38;5027321;28;47536;-80
2022/07/17 11:03:36;;;;;;;;;3.00;3.00;;;;;27.01;25.59;101744.19;5045764;28;45688;-85
2022/07/17 11:06:19;;;;;;;;;2.75;2.00;;;;;27.05;24.98;101746.28;5043202;28;45928;-86
2022/07/17 11:08:56;;;;;;;;;3.75;2.25;;;;;27.07;25.60;101746.13;5042354;28;45637;-81
2022/07/17 11:11:35;;;;;;;;;2.00;2.00;;;;;26.99;26.28;101724.72;5022678;28;47396;-82
2022/07/17 11:14:11;;;;;;;;;5.25;4.00;;;;;27.13;25.82;101735.44;5042836;28;45278;-82
2022/07/17 11:16:37;;;;;;;;;3.00;2.75;;;;;27.10;25.96;101722.34;5044985;28;45506;-83
2022/07/17 11:19:03;;;;;;;;;3.00;2.00;;;;;27.20;25.28;101735.50;5035764;28;45637;-81
2022/07/17 11:21:29;;;;;;;;;2.00;2.00;;;;;27.21;25.04;101736.34;5034492;28;46376;-77
2022/07/17 11:23:56;;;;;;;;;2.00;2.00;;;;;27.23;25.85;101720.81;5035109;28;45613;-76
2022/07/17 11:26:22;;;;;;;;;3.00;2.00;;;;;27.28;25.33;101724.63;5034611;28;45661;-76
2022/07/17 11:28:49;;;;;;;;;3.00;2.00;;;;;27.34;25.63;101723.00;5017295;28;48452;-76
2022/07/17 11:31:21;;;;;;;;;4.00;2.50;;;;;27.36;25.42;101721.81;5034495;28;45653;-77
2022/07/17 11:34:04;;;;;;;;;2.75;2.75;;;;;27.36;25.61;101715.59;5033433;28;45534;-75
2022/07/17 11:36:32;;;;;;;;;2.75;2.00;;;;;27.41;25.46;101716.69;5034551;28;45685;-76
2022/07/17 11:39:02;;;;;;;;;2.50;2.50;;;;;27.43;25.34;101716.47;5033182;28;46522;-76
2022/07/17 11:41:36;;;;;;;;;3.25;3.25;;;;;27.45;25.64;101712.56;5033000;28;45926;-76
2022/07/17 11:44:04;;;;;;;;;3.00;3.00;;;;;27.51;25.79;101713.69;5033377;28;45558;-77
2022/07/17 11:46:31;;;;;;;;;3.50;3.50;;;;;27.56;25.50;101711.25;5033480;28;45487;-76
2022/07/17 11:48:57;;;;;;;;;3.00;2.75;;;;;27.58;25.28;101713.75;5032754;28;46390;-76
2022/07/17 11:51:40;;;;;;;;;4.00;4.00;;;;;27.60;25.16;101706.31;5032732;28;45798;-76
2022/07/17 11:54:08;;;;;;;;;2.00;2.00;;;;;27.66;25.09;101700.16;5032568;28;45617;-76
2022/07/17 11:56:34;;;;;;;;;3.00;2.75;;;;;27.70;25.72;101701.41;5032953;28;45765;-75
2022/07/17 11:59:00;;;;;;;;;3.00;3.00;;;;;27.73;25.54;101692.97;5032836;28;45685;-77
2022/07/17 12:01:29;;;;;;;;;4.00;3.50;;;;;27.79;26.13;101689.50;5032966;28;46366;-75
2022/07/17 12:03:59;;;;;;;;;3.00;2.75;;;;;27.84;25.20;101687.03;5032971;28;45470;-75
2022/07/17 12:06:26;;;;;;;;;6.00;5.00;;;;;27.90;25.71;101672.78;5032729;28;45779;-76
2022/07/17 12:08:53;;;;;;;;;5.00;3.50;;;;;28.00;25.41;101678.66;5013875;28;48231;-77
2022/07/17 12:11:18;;;;;;;;;3.00;3.00;;;;;28.03;25.24;101667.47;5031963;28;46520;-76
2022/07/17 12:13:46;;;;;;;;;3.00;3.00;;;;;28.09;24.95;101672.06;5032518;28;45590;-77
2022/07/17 12:16:22;;;;;;;;;3.50;3.00;;;;;28.14;25.21;101668.81;5015025;28;45970;-77
2022/07/17 12:19:11;;;;;;;;;3.00;2.50;;;;;28.16;25.51;101662.22;5032919;28;47035;-76
2022/07/17 12:21:55;;;;;;;;;3.75;2.50;;;;;28.24;24.67;101663.91;5014473;28;46843;-78
2022/07/17 12:24:24;;;;;;;;;3.25;2.75;;;;;28.31;24.80;101657.53;5033440;28;45669;-81
2022/07/17 12:26:49;;;;;;;;;4.00;4.00;;;;;28.42;25.33;101649.91;5032008;28;45586;-81
2022/07/17 12:29:15;;;;;;;;;2.75;2.00;;;;;28.46;25.20;101646.59;5033463;28;46461;-82
2022/07/17 12:31:41;;;;;;;;;3.25;2.75;;;;;28.58;24.52;101642.28;5033379;28;46018;-79
2022/07/17 12:34:07;;;;;;;;;3.00;3.00;;;;;28.57;24.40;101624.44;5033712;28;45673;-77
2022/07/17 12:36:32;;;;;;;;;3.00;2.00;;;;;28.65;23.61;101634.22;5015605;28;46115;-78
2022/07/17 12:38:58;;;;;;;;;2.00;2.00;;;;;28.74;23.04;101638.44;5032807;28;46383;-77
2022/07/17 12:41:24;;;;;;;;;2.75;2.75;;;;;28.76;24.04;101639.06;5033068;28;46226;-77
2022/07/17 12:43:49;;;;;;;;;2.00;2.00;;;;;28.71;23.71;101620.75;5033240;28;45834;-79
2022/07/17 12:46:16;;;;;;;;;3.00;3.00;;;;;28.83;24.21;101622.91;5015308;28;45640;-78
2022/07/17 12:48:42;;;;;;;;;3.00;3.00;;;;;28.85;24.07;101621.66;5033089;28;45681;-79